sensor_id;sensor_type;location;lat;lon;timestamp;pressure;altitude;pressure_sealevel;temperature;humidity
59435;BME280;45241;49.768;8.636;2022-12-10T00:01:20;99141.75;;;3.59;89.03
59435;BME280;45241;49.768;8.636;2022-12-10T00:03:45;99148.53;;;4.38;84.40
59435;BME280;45241;49.768;8.636;2022-12-10T00:06:12;99151.25;;;2.90;89.67
59435;BME280;45241;49.768;8.636;2022-12-10T00:08:37;99156.41;;;3.38;90.96
59435;BME280;45241;49.768;8.636;2022-12-10T00:11:03;99148.50;;;3.92;85.49
59435;BME280;45241;49.768;8.636;2022-12-10T00:13:29;99151.25;;;3.76;89.00
59435;BME280;45241;49.768;8.636;2022-12-10T00:15:54;99151.81;;;4.40;84.21
59435;BME280;45241;49.768;8.636;2022-12-10T00:18:20;99161.13;;;3.12;90.37
59435;BME280;45241;49.768;8.636;2022-12-10T00:20:45;99156.94;;;4.19;85.26
59435;BME280;45241;49.768;8.636;2022-12-10T00:23:10;99152.81;;;3.23;90.03
59435;BME280;45241;49.768;8.636;2022-12-10T00:25:35;99147.56;;;4.31;84.89
59435;BME280;45241;49.768;8.636;2022-12-10T00:28:01;99148.88;;;4.73;82.20
59435;BME280;45241;49.768;8.636;2022-12-10T00:30:26;99154.19;;;4.73;80.98
59435;BME280;45241;49.768;8.636;2022-12-10T00:32:51;99150.63;;;4.80;80.58
59435;BME280;45241;49.768;8.636;2022-12-10T00:35:17;99154.31;;;4.94;80.45
59435;BME280;45241;49.768;8.636;2022-12-10T00:37:42;99164.59;;;4.59;81.08
59435;BME280;45241;49.768;8.636;2022-12-10T00:40:07;99153.16;;;4.59;82.40
59435;BME280;45241;49.768;8.636;2022-12-10T00:42:33;99151.59;;;4.27;84.26
59435;BME280;45241;49.768;8.636;2022-12-10T00:44:58;99150.41;;;4.06;83.94
59435;BME280;45241;49.768;8.636;2022-12-10T00:47:23;99152.75;;;4.85;81.50
59435;BME280;45241;49.768;8.636;2022-12-10T00:49:48;99153.13;;;4.97;80.87
59435;BME280;45241;49.768;8.636;2022-12-10T00:52:13;99153.03;;;4.90;80.74
59435;BME280;45241;49.768;8.636;2022-12-10T00:54:39;99155.72;;;5.19;79.98
59435;BME280;45241;49.768;8.636;2022-12-10T00:57:04;99144.19;;;5.27;79.59
59435;BME280;45241;49.768;8.636;2022-12-10T00:59:29;99157.81;;;5.09;79.88
59435;BME280;45241;49.768;8.636;2022-12-10T01:01:54;99155.41;;;4.85;80.72
59435;BME280;45241;49.768;8.636;2022-12-10T01:04:19;99155.94;;;4.65;81.76
59435;BME280;45241;49.768;8.636;2022-12-10T01:06:49;99158.34;;;4.06;83.52
59435;BME280;45241;49.768;8.636;2022-12-10T01:09:16;99154.25;;;4.27;83.34
59435;BME280;45241;49.768;8.636;2022-12-10T01:11:42;99157.53;;;4.06;85.01
59435;BME280;45241;49.768;8.636;2022-12-10T01:14:09;99162.81;;;4.37;83.47
59435;BME280;45241;49.768;8.636;2022-12-10T01:16:35;99158.19;;;4.54;83.12
59435;BME280;45241;49.768;8.636;2022-12-10T01:19:00;99166.50;;;4.51;82.81
59435;BME280;45241;49.768;8.636;2022-12-10T01:21:26;99166.53;;;4.65;81.42
59435;BME280;45241;49.768;8.636;2022-12-10T01:23:53;99167.84;;;4.84;82.23
59435;BME280;45241;49.768;8.636;2022-12-10T01:26:19;99171.53;;;4.60;81.75
59435;BME280;45241;49.768;8.636;2022-12-10T01:28:45;99175.59;;;3.80;85.42
59435;BME280;45241;49.768;8.636;2022-12-10T01:31:29;99183.53;;;3.80;85.64
59435;BME280;45241;49.768;8.636;2022-12-10T01:33:55;99182.03;;;4.39;84.54
59435;BME280;45241;49.768;8.636;2022-12-10T01:36:21;99190.09;;;4.46;84.24
59435;BME280;45241;49.768;8.636;2022-12-10T01:38:47;99191.84;;;4.07;84.02
59435;BME280;45241;49.768;8.636;2022-12-10T01:41:13;99190.22;;;4.29;83.10
59435;BME280;45241;49.768;8.636;2022-12-10T01:43:53;99190.50;;;4.34;84.14
59435;BME280;45241;49.768;8.636;2022-12-10T01:46:18;99195.56;;;4.21;84.60
59435;BME280;45241;49.768;8.636;2022-12-10T01:48:44;99203.00;;;4.26;84.65
59435;BME280;45241;49.768;8.636;2022-12-10T01:51:10;99209.41;;;3.69;88.59
59435;BME280;45241;49.768;8.636;2022-12-10T01:53:35;99196.38;;;3.99;86.00
59435;BME280;45241;49.768;8.636;2022-12-10T01:56:01;99210.09;;;3.24;89.22
59435;BME280;45241;49.768;8.636;2022-12-10T01:58:26;99211.94;;;3.63;86.49
59435;BME280;45241;49.768;8.636;2022-12-10T02:00:57;99208.75;;;3.75;86.94
59435;BME280;45241;49.768;8.636;2022-12-10T02:03:50;99208.25;;;4.34;84.22
59435;BME280;45241;49.768;8.636;2022-12-10T02:09:02;99204.34;;;4.68;81.70
59435;BME280;45241;49.768;8.636;2022-12-10T02:11:31;99212.09;;;4.54;81.84
59435;BME280;45241;49.768;8.636;2022-12-10T02:14:05;99208.06;;;4.58;81.75
59435;BME280;45241;49.768;8.636;2022-12-10T02:16:36;99206.81;;;3.61;85.26
59435;BME280;45241;49.768;8.636;2022-12-10T02:19:20;99209.47;;;4.00;85.82
59435;BME280;45241;49.768;8.636;2022-12-10T02:21:47;99208.06;;;4.13;85.62
59435;BME280;45241;49.768;8.636;2022-12-10T02:24:15;99208.31;;;3.95;83.77
59435;BME280;45241;49.768;8.636;2022-12-10T02:29:26;99203.25;;;4.62;81.65
59435;BME280;45241;49.768;8.636;2022-12-10T02:31:53;99211.56;;;3.27;86.32
59435;BME280;45241;49.768;8.636;2022-12-10T02:34:20;99210.31;;;3.62;85.17
59435;BME280;45241;49.768;8.636;2022-12-10T02:36:47;99207.75;;;3.76;86.41
59435;BME280;45241;49.768;8.636;2022-12-10T02:39:17;99214.34;;;3.41;86.54
59435;BME280;45241;49.768;8.636;2022-12-10T02:41:45;99221.28;;;3.42;87.51
59435;BME280;45241;49.768;8.636;2022-12-10T02:44:12;99214.38;;;3.17;87.63
59435;BME280;45241;49.768;8.636;2022-12-10T02:46:39;99213.59;;;3.00;89.09
59435;BME280;45241;49.768;8.636;2022-12-10T02:49:06;99212.44;;;3.03;88.65
59435;BME280;45241;49.768;8.636;2022-12-10T02:51:32;99207.44;;;3.16;89.86
59435;BME280;45241;49.768;8.636;2022-12-10T02:54:01;99206.38;;;2.70;91.28
59435;BME280;45241;49.768;8.636;2022-12-10T02:56:28;99204.88;;;2.83;90.17
59435;BME280;45241;49.768;8.636;2022-12-10T03:03:56;99206.16;;;2.87;90.47
59435;BME280;45241;49.768;8.636;2022-12-10T03:06:39;99201.66;;;3.04;89.57
59435;BME280;45241;49.768;8.636;2022-12-10T03:09:09;99202.03;;;2.85;91.14
59435;BME280;45241;49.768;8.636;2022-12-10T03:11:36;99210.50;;;2.80;91.45
59435;BME280;45241;49.768;8.636;2022-12-10T03:16:35;99206.78;;;3.14;89.68
59435;BME280;45241;49.768;8.636;2022-12-10T03:19:03;99201.72;;;2.72;89.70
59435;BME280;45241;49.768;8.636;2022-12-10T03:21:29;99199.53;;;2.92;89.73
59435;BME280;45241;49.768;8.636;2022-12-10T03:23:55;99198.84;;;3.22;88.87
59435;BME280;45241;49.768;8.636;2022-12-10T03:26:21;99201.03;;;2.86;89.24
59435;BME280;45241;49.768;8.636;2022-12-10T03:28:48;99201.97;;;3.17;87.80
59435;BME280;45241;49.768;8.636;2022-12-10T03:31:15;99206.59;;;3.32;87.72
59435;BME280;45241;49.768;8.636;2022-12-10T03:33:41;99205.97;;;3.22;88.13
59435;BME280;45241;49.768;8.636;2022-12-10T03:36:07;99203.84;;;2.76;89.39
59435;BME280;45241;49.768;8.636;2022-12-10T03:38:33;99204.19;;;2.98;87.63
59435;BME280;45241;49.768;8.636;2022-12-10T03:40:58;99198.50;;;3.25;85.88
59435;BME280;45241;49.768;8.636;2022-12-10T03:43:23;99202.66;;;3.67;84.49
59435;BME280;45241;49.768;8.636;2022-12-10T03:45:49;99208.84;;;3.51;85.58
59435;BME280;45241;49.768;8.636;2022-12-10T03:48:14;99205.63;;;3.72;84.34
59435;BME280;45241;49.768;8.636;2022-12-10T03:50:39;99203.53;;;3.51;85.25
59435;BME280;45241;49.768;8.636;2022-12-10T03:53:04;99208.44;;;3.15;87.27
59435;BME280;45241;49.768;8.636;2022-12-10T03:55:29;99216.03;;;3.34;86.92
59435;BME280;45241;49.768;8.636;2022-12-10T03:57:55;99214.59;;;3.07;86.86
59435;BME280;45241;49.768;8.636;2022-12-10T04:00:20;99225.88;;;2.93;88.26
59435;BME280;45241;49.768;8.636;2022-12-10T04:02:45;99220.84;;;3.23;86.90
59435;BME280;45241;49.768;8.636;2022-12-10T04:05:10;99222.44;;;3.40;85.03
59435;BME280;45241;49.768;8.636;2022-12-10T04:07:36;99220.03;;;3.14;86.55
59435;BME280;45241;49.768;8.636;2022-12-10T04:10:01;99223.38;;;3.08;86.30
59435;BME280;45241;49.768;8.636;2022-12-10T04:12:26;99228.66;;;3.00;86.38
59435;BME280;45241;49.768;8.636;2022-12-10T04:14:52;99229.00;;;2.88;87.41
59435;BME280;45241;49.768;8.636;2022-12-10T04:17:36;99224.28;;;3.39;84.41
59435;BME280;45241;49.768;8.636;2022-12-10T04:20:01;99226.84;;;3.72;83.13
59435;BME280;45241;49.768;8.636;2022-12-10T04:22:26;99229.34;;;3.57;83.58
59435;BME280;45241;49.768;8.636;2022-12-10T04:25:10;99226.13;;;3.78;83.48
59435;BME280;45241;49.768;8.636;2022-12-10T04:27:55;99231.75;;;3.28;84.42
59435;BME280;45241;49.768;8.636;2022-12-10T04:30:20;99232.31;;;3.62;84.00
59435;BME280;45241;49.768;8.636;2022-12-10T04:32:45;99228.78;;;3.23;84.80
59435;BME280;45241;49.768;8.636;2022-12-10T04:35:10;99224.53;;;2.65;87.55
59435;BME280;45241;49.768;8.636;2022-12-10T04:37:36;99233.53;;;3.43;84.14
59435;BME280;45241;49.768;8.636;2022-12-10T04:40:01;99234.16;;;3.54;83.06
59435;BME280;45241;49.768;8.636;2022-12-10T04:42:26;99228.53;;;3.57;82.51
59435;BME280;45241;49.768;8.636;2022-12-10T04:44:52;99229.47;;;4.11;81.21
59435;BME280;45241;49.768;8.636;2022-12-10T04:47:17;99232.34;;;3.54;82.56
59435;BME280;45241;49.768;8.636;2022-12-10T04:49:42;99233.81;;;3.57;83.18
59435;BME280;45241;49.768;8.636;2022-12-10T04:52:08;99238.31;;;3.95;81.70
59435;BME280;45241;49.768;8.636;2022-12-10T04:54:35;99230.56;;;3.38;82.37
59435;BME280;45241;49.768;8.636;2022-12-10T04:57:00;99243.75;;;3.55;81.57
59435;BME280;45241;49.768;8.636;2022-12-10T04:59:25;99241.81;;;3.49;82.68
59435;BME280;45241;49.768;8.636;2022-12-10T05:01:50;99241.34;;;3.45;83.83
59435;BME280;45241;49.768;8.636;2022-12-10T05:04:16;99249.19;;;3.69;81.77
59435;BME280;45241;49.768;8.636;2022-12-10T05:06:42;99251.06;;;4.00;81.60
59435;BME280;45241;49.768;8.636;2022-12-10T05:09:09;99249.50;;;3.74;82.88
59435;BME280;45241;49.768;8.636;2022-12-10T05:11:34;99259.19;;;3.59;82.43
59435;BME280;45241;49.768;8.636;2022-12-10T05:14:00;99257.66;;;4.04;79.81
59435;BME280;45241;49.768;8.636;2022-12-10T05:16:26;99257.53;;;3.97;81.55
59435;BME280;45241;49.768;8.636;2022-12-10T05:18:52;99261.78;;;4.06;80.17
59435;BME280;45241;49.768;8.636;2022-12-10T05:21:18;99267.91;;;3.68;83.71
59435;BME280;45241;49.768;8.636;2022-12-10T05:23:45;99260.94;;;3.75;80.57
59435;BME280;45241;49.768;8.636;2022-12-10T05:28:37;99258.53;;;4.27;79.98
59435;BME280;45241;49.768;8.636;2022-12-10T05:31:03;99258.44;;;4.44;79.10
59435;BME280;45241;49.768;8.636;2022-12-10T05:33:28;99267.31;;;3.58;81.47
59435;BME280;45241;49.768;8.636;2022-12-10T05:38:18;99270.19;;;3.87;82.24
59435;BME280;45241;49.768;8.636;2022-12-10T05:40:44;99271.09;;;4.02;81.74
59435;BME280;45241;49.768;8.636;2022-12-10T05:43:09;99274.56;;;4.34;80.00
59435;BME280;45241;49.768;8.636;2022-12-10T05:45:34;99281.22;;;4.30;79.59
59435;BME280;45241;49.768;8.636;2022-12-10T05:47:59;99276.63;;;4.55;78.74
59435;BME280;45241;49.768;8.636;2022-12-10T05:50:25;99275.13;;;4.21;79.08
59435;BME280;45241;49.768;8.636;2022-12-10T05:52:51;99286.75;;;3.81;81.56
59435;BME280;45241;49.768;8.636;2022-12-10T05:55:16;99274.81;;;4.47;80.59
59435;BME280;45241;49.768;8.636;2022-12-10T05:57:41;99277.69;;;4.69;79.11
59435;BME280;45241;49.768;8.636;2022-12-10T06:00:07;99273.53;;;4.43;79.98
59435;BME280;45241;49.768;8.636;2022-12-10T06:02:34;99284.66;;;4.07;81.57
59435;BME280;45241;49.768;8.636;2022-12-10T06:04:59;99279.88;;;4.03;82.31
59435;BME280;45241;49.768;8.636;2022-12-10T06:07:25;99281.72;;;4.33;79.98
59435;BME280;45241;49.768;8.636;2022-12-10T06:09:50;99286.50;;;4.38;80.08
59435;BME280;45241;49.768;8.636;2022-12-10T06:12:15;99287.97;;;4.41;80.17
59435;BME280;45241;49.768;8.636;2022-12-10T06:14:40;99286.63;;;4.45;79.77
59435;BME280;45241;49.768;8.636;2022-12-10T06:17:05;99283.91;;;4.22;81.37
59435;BME280;45241;49.768;8.636;2022-12-10T06:19:31;99290.28;;;4.44;80.12
59435;BME280;45241;49.768;8.636;2022-12-10T06:21:56;99303.81;;;3.87;81.26
59435;BME280;45241;49.768;8.636;2022-12-10T06:24:23;99312.13;;;3.84;81.96
59435;BME280;45241;49.768;8.636;2022-12-10T06:26:48;99301.28;;;4.32;80.64
59435;BME280;45241;49.768;8.636;2022-12-10T06:29:13;99306.16;;;4.52;80.12
59435;BME280;45241;49.768;8.636;2022-12-10T06:31:38;99311.16;;;4.16;82.83
59435;BME280;45241;49.768;8.636;2022-12-10T06:34:03;99317.81;;;4.43;79.63
59435;BME280;45241;49.768;8.636;2022-12-10T06:36:29;99322.66;;;4.00;81.64
59435;BME280;45241;49.768;8.636;2022-12-10T06:38:54;99317.03;;;3.95;81.13
59435;BME280;45241;49.768;8.636;2022-12-10T06:41:19;99322.84;;;3.98;83.14
59435;BME280;45241;49.768;8.636;2022-12-10T06:43:45;99322.28;;;4.11;82.08
59435;BME280;45241;49.768;8.636;2022-12-10T06:46:12;99334.88;;;3.54;83.07
59435;BME280;45241;49.768;8.636;2022-12-10T06:48:38;99322.22;;;4.27;80.86
59435;BME280;45241;49.768;8.636;2022-12-10T06:51:04;99342.53;;;4.04;81.38
59435;BME280;45241;49.768;8.636;2022-12-10T06:53:30;99337.34;;;3.71;84.45
59435;BME280;45241;49.768;8.636;2022-12-10T06:55:57;99337.22;;;3.32;83.40
59435;BME280;45241;49.768;8.636;2022-12-10T06:58:22;99341.16;;;3.61;83.48
59435;BME280;45241;49.768;8.636;2022-12-10T07:00:47;99341.63;;;4.20;81.64
59435;BME280;45241;49.768;8.636;2022-12-10T07:03:12;99333.31;;;4.31;80.22
59435;BME280;45241;49.768;8.636;2022-12-10T07:05:37;99337.78;;;4.30;79.92
59435;BME280;45241;49.768;8.636;2022-12-10T07:08:03;99338.81;;;4.21;80.54
59435;BME280;45241;49.768;8.636;2022-12-10T07:10:28;99343.19;;;3.34;84.69
59435;BME280;45241;49.768;8.636;2022-12-10T07:12:53;99350.00;;;4.00;81.65
59435;BME280;45241;49.768;8.636;2022-12-10T07:15:19;99355.47;;;3.99;81.34
59435;BME280;45241;49.768;8.636;2022-12-10T07:17:44;99342.72;;;4.33;79.91
59435;BME280;45241;49.768;8.636;2022-12-10T07:20:09;99339.34;;;4.17;81.59
59435;BME280;45241;49.768;8.636;2022-12-10T07:22:36;99354.97;;;4.43;79.61
59435;BME280;45241;49.768;8.636;2022-12-10T07:25:02;99349.97;;;3.37;82.78
59435;BME280;45241;49.768;8.636;2022-12-10T07:27:28;99363.56;;;4.14;80.43
59435;BME280;45241;49.768;8.636;2022-12-10T07:29:55;99364.16;;;3.85;81.50
59435;BME280;45241;49.768;8.636;2022-12-10T07:32:21;99362.53;;;3.43;83.45
59435;BME280;45241;49.768;8.636;2022-12-10T07:34:46;99365.63;;;4.34;80.50
59435;BME280;45241;49.768;8.636;2022-12-10T07:37:11;99374.81;;;4.24;79.83
59435;BME280;45241;49.768;8.636;2022-12-10T07:39:36;99374.28;;;3.73;82.68
59435;BME280;45241;49.768;8.636;2022-12-10T07:42:01;99372.63;;;3.56;81.98
59435;BME280;45241;49.768;8.636;2022-12-10T07:44:27;99371.72;;;3.96;81.21
59435;BME280;45241;49.768;8.636;2022-12-10T07:46:53;99375.72;;;3.92;79.51
59435;BME280;45241;49.768;8.636;2022-12-10T07:49:19;99376.34;;;4.10;81.24
59435;BME280;45241;49.768;8.636;2022-12-10T07:51:47;99382.47;;;4.11;78.72
59435;BME280;45241;49.768;8.636;2022-12-10T07:54:13;99388.56;;;4.19;79.36
59435;BME280;45241;49.768;8.636;2022-12-10T07:56:39;99383.91;;;3.33;82.86
59435;BME280;45241;49.768;8.636;2022-12-10T07:59:04;99387.53;;;3.65;82.39
59435;BME280;45241;49.768;8.636;2022-12-10T08:01:29;99390.78;;;3.83;81.87
59435;BME280;45241;49.768;8.636;2022-12-10T08:03:55;99395.16;;;4.31;80.31
59435;BME280;45241;49.768;8.636;2022-12-10T08:06:24;99389.13;;;3.90;81.61
59435;BME280;45241;49.768;8.636;2022-12-10T08:08:50;99390.50;;;3.54;81.58
59435;BME280;45241;49.768;8.636;2022-12-10T08:11:16;99396.28;;;3.82;82.83
59435;BME280;45241;49.768;8.636;2022-12-10T08:13:41;99398.34;;;4.19;80.05
59435;BME280;45241;49.768;8.636;2022-12-10T08:16:08;99404.28;;;4.29;79.02
59435;BME280;45241;49.768;8.636;2022-12-10T08:18:34;99403.00;;;4.56;78.22
59435;BME280;45241;49.768;8.636;2022-12-10T08:21:06;99400.25;;;4.41;78.33
59435;BME280;45241;49.768;8.636;2022-12-10T08:23:31;99403.75;;;4.42;78.31
59435;BME280;45241;49.768;8.636;2022-12-10T08:25:56;99409.16;;;4.56;78.35
59435;BME280;45241;49.768;8.636;2022-12-10T08:28:21;99403.16;;;4.15;79.45
59435;BME280;45241;49.768;8.636;2022-12-10T08:30:47;99408.03;;;3.87;80.61
59435;BME280;45241;49.768;8.636;2022-12-10T08:33:12;99407.78;;;4.60;78.14
59435;BME280;45241;49.768;8.636;2022-12-10T08:35:37;99401.22;;;4.01;85.38
59435;BME280;45241;49.768;8.636;2022-12-10T08:38:03;99403.41;;;3.57;82.64
59435;BME280;45241;49.768;8.636;2022-12-10T08:40:28;99413.47;;;4.10;80.61
59435;BME280;45241;49.768;8.636;2022-12-10T08:42:53;99403.91;;;3.85;80.80
59435;BME280;45241;49.768;8.636;2022-12-10T08:45:18;99423.72;;;4.60;78.58
59435;BME280;45241;49.768;8.636;2022-12-10T08:47:44;99400.75;;;3.97;78.38
59435;BME280;45241;49.768;8.636;2022-12-10T08:50:09;99407.91;;;4.36;78.92
59435;BME280;45241;49.768;8.636;2022-12-10T08:52:34;99412.00;;;3.91;78.45
59435;BME280;45241;49.768;8.636;2022-12-10T08:54:59;99417.31;;;3.99;79.79
59435;BME280;45241;49.768;8.636;2022-12-10T08:57:24;99414.41;;;4.25;79.01
59435;BME280;45241;49.768;8.636;2022-12-10T08:59:50;99415.81;;;3.97;80.88
59435;BME280;45241;49.768;8.636;2022-12-10T09:02:15;99419.66;;;3.86;79.21
59435;BME280;45241;49.768;8.636;2022-12-10T09:04:40;99424.81;;;4.35;78.51
59435;BME280;45241;49.768;8.636;2022-12-10T09:07:07;99417.16;;;3.68;80.31
59435;BME280;45241;49.768;8.636;2022-12-10T09:09:32;99430.09;;;4.43;78.33
59435;BME280;45241;49.768;8.636;2022-12-10T09:11:57;99416.34;;;3.84;79.43
59435;BME280;45241;49.768;8.636;2022-12-10T09:14:23;99420.84;;;4.39;78.63
59435;BME280;45241;49.768;8.636;2022-12-10T09:16:48;99418.75;;;4.18;78.20
59435;BME280;45241;49.768;8.636;2022-12-10T09:19:14;99417.78;;;4.11;78.63
59435;BME280;45241;49.768;8.636;2022-12-10T09:21:39;99421.13;;;3.97;77.95
59435;BME280;45241;49.768;8.636;2022-12-10T09:24:04;99423.59;;;4.54;78.09
59435;BME280;45241;49.768;8.636;2022-12-10T09:26:30;99429.44;;;4.80;77.73
59435;BME280;45241;49.768;8.636;2022-12-10T09:28:55;99426.78;;;4.49;77.78
59435;BME280;45241;49.768;8.636;2022-12-10T09:31:22;99435.38;;;4.51;77.49
59435;BME280;45241;49.768;8.636;2022-12-10T09:33:49;99422.41;;;4.09;77.87
59435;BME280;45241;49.768;8.636;2022-12-10T09:36:14;99432.66;;;4.20;76.40
59435;BME280;45241;49.768;8.636;2022-12-10T09:38:40;99431.81;;;4.75;76.96
59435;BME280;45241;49.768;8.636;2022-12-10T09:46:06;99432.75;;;4.43;78.22
59435;BME280;45241;49.768;8.636;2022-12-10T09:48:59;99435.22;;;3.89;78.85
59435;BME280;45241;49.768;8.636;2022-12-10T09:51:25;99426.31;;;4.77;76.51
59435;BME280;45241;49.768;8.636;2022-12-10T09:53:53;99429.25;;;3.87;79.10
59435;BME280;45241;49.768;8.636;2022-12-10T09:56:37;99429.00;;;4.29;78.92
59435;BME280;45241;49.768;8.636;2022-12-10T09:59:38;99431.91;;;4.90;77.38
59435;BME280;45241;49.768;8.636;2022-12-10T10:04:50;99426.38;;;4.13;77.63
59435;BME280;45241;49.768;8.636;2022-12-10T10:07:26;99431.81;;;4.28;77.78
59435;BME280;45241;49.768;8.636;2022-12-10T10:09:55;99428.75;;;4.86;75.72
59435;BME280;45241;49.768;8.636;2022-12-10T10:12:21;99428.91;;;3.98;77.95
59435;BME280;45241;49.768;8.636;2022-12-10T10:14:47;99429.03;;;4.13;76.74
59435;BME280;45241;49.768;8.636;2022-12-10T10:17:15;99427.41;;;4.90;75.72
59435;BME280;45241;49.768;8.636;2022-12-10T10:19:41;99422.00;;;4.76;75.93
59435;BME280;45241;49.768;8.636;2022-12-10T10:22:09;99431.09;;;4.81;75.79
59435;BME280;45241;49.768;8.636;2022-12-10T10:24:35;99429.56;;;4.56;76.64
59435;BME280;45241;49.768;8.636;2022-12-10T10:27:11;99429.75;;;4.46;76.35
59435;BME280;45241;49.768;8.636;2022-12-10T10:29:37;99431.22;;;4.10;76.92
59435;BME280;45241;49.768;8.636;2022-12-10T10:32:13;99436.47;;;5.04;78.05
59435;BME280;45241;49.768;8.636;2022-12-10T10:34:39;99439.31;;;4.63;77.79
59435;BME280;45241;49.768;8.636;2022-12-10T10:37:04;99430.22;;;4.02;78.41
59435;BME280;45241;49.768;8.636;2022-12-10T10:39:30;99433.16;;;4.24;77.48
59435;BME280;45241;49.768;8.636;2022-12-10T10:41:57;99427.81;;;4.40;77.87
59435;BME280;45241;49.768;8.636;2022-12-10T10:44:23;99432.50;;;4.61;77.68
59435;BME280;45241;49.768;8.636;2022-12-10T10:46:50;99441.44;;;4.76;75.23
59435;BME280;45241;49.768;8.636;2022-12-10T10:49:29;99436.47;;;4.26;77.02
59435;BME280;45241;49.768;8.636;2022-12-10T10:52:06;99436.00;;;4.61;76.85
59435;BME280;45241;49.768;8.636;2022-12-10T10:54:40;99441.78;;;5.04;74.99
59435;BME280;45241;49.768;8.636;2022-12-10T10:57:10;99445.06;;;4.36;75.60
59435;BME280;45241;49.768;8.636;2022-12-10T10:59:36;99437.25;;;4.34;75.82
59435;BME280;45241;49.768;8.636;2022-12-10T11:07:02;99447.59;;;4.69;75.87
59435;BME280;45241;49.768;8.636;2022-12-10T11:09:29;99441.72;;;4.42;76.31
59435;BME280;45241;49.768;8.636;2022-12-10T11:12:38;99438.16;;;4.11;77.94
59435;BME280;45241;49.768;8.636;2022-12-10T11:14:44;99440.13;;;4.09;79.07
59435;BME280;45241;49.768;8.636;2022-12-10T11:19:41;99439.25;;;4.80;78.38
59435;BME280;45241;49.768;8.636;2022-12-10T11:22:17;99442.41;;;4.36;78.41
59435;BME280;45241;49.768;8.636;2022-12-10T11:24:45;99444.00;;;3.65;81.56
59435;BME280;45241;49.768;8.636;2022-12-10T11:27:12;99454.91;;;4.11;80.45
59435;BME280;45241;49.768;8.636;2022-12-10T11:29:51;99450.44;;;4.03;80.16
59435;BME280;45241;49.768;8.636;2022-12-10T11:37:45;99451.78;;;3.83;79.41
59435;BME280;45241;49.768;8.636;2022-12-10T11:42:49;99446.09;;;4.27;78.26
59435;BME280;45241;49.768;8.636;2022-12-10T11:55:25;99448.75;;;4.19;79.10
59435;BME280;45241;49.768;8.636;2022-12-10T11:58:00;99450.63;;;4.57;79.20
59435;BME280;45241;49.768;8.636;2022-12-10T12:00:30;99457.41;;;4.04;79.96
59435;BME280;45241;49.768;8.636;2022-12-10T12:05:52;99447.66;;;4.52;78.50
59435;BME280;45241;49.768;8.636;2022-12-10T12:13:17;99459.53;;;4.09;79.28
59435;BME280;45241;49.768;8.636;2022-12-10T12:16:00;99454.28;;;4.56;79.21
59435;BME280;45241;49.768;8.636;2022-12-10T12:18:36;99456.13;;;4.87;77.27
59435;BME280;45241;49.768;8.636;2022-12-10T12:21:05;99460.56;;;4.63;75.44
59435;BME280;45241;49.768;8.636;2022-12-10T12:23:36;99461.06;;;4.59;77.28
59435;BME280;45241;49.768;8.636;2022-12-10T12:26:04;99460.38;;;4.65;76.17
59435;BME280;45241;49.768;8.636;2022-12-10T12:28:32;99460.56;;;5.25;75.25
59435;BME280;45241;49.768;8.636;2022-12-10T12:31:05;99464.59;;;5.13;75.44
59435;BME280;45241;49.768;8.636;2022-12-10T12:33:42;99464.19;;;4.23;77.45
59435;BME280;45241;49.768;8.636;2022-12-10T12:36:11;99460.19;;;4.75;78.91
59435;BME280;45241;49.768;8.636;2022-12-10T12:38:40;99456.84;;;5.35;75.38
59435;BME280;45241;49.768;8.636;2022-12-10T12:41:16;99455.56;;;4.60;74.87
59435;BME280;45241;49.768;8.636;2022-12-10T12:44:02;99454.69;;;4.37;77.09
59435;BME280;45241;49.768;8.636;2022-12-10T12:46:47;99461.56;;;5.24;74.05
59435;BME280;45241;49.768;8.636;2022-12-10T12:49:18;99457.59;;;5.20;75.73
59435;BME280;45241;49.768;8.636;2022-12-10T12:51:51;99464.44;;;4.84;77.40
59435;BME280;45241;49.768;8.636;2022-12-10T12:54:17;99469.91;;;4.35;78.21
59435;BME280;45241;49.768;8.636;2022-12-10T12:57:03;99463.31;;;4.31;77.66
59435;BME280;45241;49.768;8.636;2022-12-10T13:04:51;99469.34;;;4.64;75.82
59435;BME280;45241;49.768;8.636;2022-12-10T13:09:46;99471.03;;;5.27;75.32
59435;BME280;45241;49.768;8.636;2022-12-10T13:12:31;99466.13;;;5.39;74.60
59435;BME280;45241;49.768;8.636;2022-12-10T13:15:02;99473.56;;;4.50;76.75
59435;BME280;45241;49.768;8.636;2022-12-10T13:17:37;99467.38;;;4.97;76.50
59435;BME280;45241;49.768;8.636;2022-12-10T13:25:37;99472.97;;;5.33;74.14
59435;BME280;45241;49.768;8.636;2022-12-10T13:28:16;99479.59;;;5.60;73.76
59435;BME280;45241;49.768;8.636;2022-12-10T13:30:41;99483.81;;;5.01;74.96
59435;BME280;45241;49.768;8.636;2022-12-10T13:33:17;99484.31;;;4.96;74.78
59435;BME280;45241;49.768;8.636;2022-12-10T13:36:04;99491.78;;;5.01;73.20
59435;BME280;45241;49.768;8.636;2022-12-10T13:38:28;99486.53;;;5.38;72.50
59435;BME280;45241;49.768;8.636;2022-12-10T13:41:01;99490.59;;;5.57;72.60
59435;BME280;45241;49.768;8.636;2022-12-10T13:43:58;99493.94;;;5.51;73.79
59435;BME280;45241;49.768;8.636;2022-12-10T13:46:56;99501.28;;;4.40;76.25
59435;BME280;45241;49.768;8.636;2022-12-10T13:49:22;99508.00;;;5.37;73.05
59435;BME280;45241;49.768;8.636;2022-12-10T13:51:51;99502.44;;;4.92;75.03
59435;BME280;45241;49.768;8.636;2022-12-10T13:59:37;99524.16;;;5.58;73.14
59435;BME280;45241;49.768;8.636;2022-12-10T14:05:07;99527.06;;;5.09;74.67
59435;BME280;45241;49.768;8.636;2022-12-10T14:07:37;99533.97;;;4.87;75.68
59435;BME280;45241;49.768;8.636;2022-12-10T14:10:02;99531.63;;;4.29;76.42
59435;BME280;45241;49.768;8.636;2022-12-10T14:12:31;99537.94;;;4.91;74.35
59435;BME280;45241;49.768;8.636;2022-12-10T14:15:03;99538.72;;;5.00;74.10
59435;BME280;45241;49.768;8.636;2022-12-10T14:17:39;99544.56;;;5.35;72.91
59435;BME280;45241;49.768;8.636;2022-12-10T14:20:07;99549.50;;;5.38;72.46
59435;BME280;45241;49.768;8.636;2022-12-10T14:22:33;99544.59;;;5.27;71.99
59435;BME280;45241;49.768;8.636;2022-12-10T14:25:00;99548.75;;;4.82;73.32
59435;BME280;45241;49.768;8.636;2022-12-10T14:27:26;99552.13;;;5.46;72.97
59435;BME280;45241;49.768;8.636;2022-12-10T14:29:53;99550.47;;;5.45;72.05
59435;BME280;45241;49.768;8.636;2022-12-10T14:32:29;99558.38;;;5.30;73.52
59435;BME280;45241;49.768;8.636;2022-12-10T14:34:56;99553.25;;;4.89;73.44